Time;durP1;ratioP1;P1;durP2;ratioP2;P2;SDS_P1;SDS_P2;PMS_P1;PMS_P2;Temp;Humidity;BMP_temperature;BMP_pressure;BME280_temperature;BME280_humidity;BME280_pressure;Samples;Min_cycle;Max_cycle;Signal;HPM_P1;HPM_P2
2022/01/21 00:01:31;;;;;;;2.45;0.85;;;;;;;;;;5060404;28;20059;-45
2022/01/21 00:03:57;;;;;;;2.38;0.73;;;;;;;;;;5058941;28;20059;-46
2022/01/21 00:06:23;;;;;;;2.53;0.70;;;;;;;;;;5059466;28;20071;-46
2022/01/21 00:08:53;;;;;;;3.58;0.98;;;;;;;;;;5044447;28;20448;-47
2022/01/21 00:11:19;;;;;;;3.80;1.60;;;;;;;;;;5065009;28;20055;-47
2022/01/21 00:13:45;;;;;;;4.00;0.90;;;;;;;;;;5063346;28;20115;-59
2022/01/21 00:16:15;;;;;;;1.85;1.02;;;;;;;;;;5063759;28;20025;-47
2022/01/21 00:18:44;;;;;;;1.33;0.70;;;;;;;;;;5062515;28;20048;-46
2022/01/21 00:32:09;;;;;;;2.42;0.70;;;;;;;;;;5063247;28;20048;-45
2022/01/21 00:34:35;;;;;;;3.58;1.00;;;;;;;;;;5062591;28;20031;-46
2022/01/21 00:37:02;;;;;;;3.22;0.90;;;;;;;;;;5063117;28;20482;-45
2022/01/21 00:39:31;;;;;;;1.75;0.80;;;;;;;;;;5062711;28;20378;-47
2022/01/21 00:42:49;;;;;;;2.33;0.60;;;;;;;;;;5061609;28;20079;-47
2022/01/21 00:44:43;;;;;;;3.20;0.95;;;;;;;;;;5056721;28;20048;-46
2022/01/21 00:47:09;;;;;;;1.45;0.60;;;;;;;;;;5044635;28;20068;-45
2022/01/21 00:49:35;;;;;;;2.15;0.90;;;;;;;;;;5062244;28;20103;-49
2022/01/21 00:52:01;;;;;;;2.53;0.85;;;;;;;;;;5063474;28;20024;-46
2022/01/21 00:54:27;;;;;;;3.40;1.00;;;;;;;;;;5062788;28;20104;-47
2022/01/21 00:56:53;;;;;;;1.17;0.73;;;;;;;;;;5061046;28;20029;-50
2022/01/21 00:59:19;;;;;;;1.80;0.90;;;;;;;;;;5064483;28;20032;-47
2022/01/21 01:01:45;;;;;;;2.28;0.90;;;;;;;;;;5063662;28;20104;-62
2022/01/21 01:04:11;;;;;;;1.80;1.23;;;;;;;;;;5045203;28;20078;-46
2022/01/21 01:06:37;;;;;;;2.95;1.05;;;;;;;;;;5062061;28;20024;-47
2022/01/21 01:09:04;;;;;;;1.88;0.70;;;;;;;;;;5037985;28;20029;-46
2022/01/21 01:22:12;;;;;;;1.95;0.90;;;;;;;;;;5060572;28;20390;-45
2022/01/21 01:27:37;;;;;;;1.25;0.75;;;;;;;;;;5063359;28;20029;-45
2022/01/21 01:30:03;;;;;;;1.75;0.90;;;;;;;;;;5062746;28;20024;-45
2022/01/21 01:32:30;;;;;;;1.67;0.90;;;;;;;;;;5061603;28;20028;-45
2022/01/21 01:34:56;;;;;;;2.30;0.80;;;;;;;;;;5062451;28;20111;-45
2022/01/21 01:37:37;;;;;;;3.42;1.40;;;;;;;;;;5061185;28;20088;-46
2022/01/21 01:40:19;;;;;;;2.75;0.95;;;;;;;;;;5060681;28;20111;-45
2022/01/21 01:50:57;;;;;;;2.28;0.70;;;;;;;;;;5058034;28;20028;-45
2022/01/21 01:53:26;;;;;;;1.83;0.80;;;;;;;;;;5072867;28;20032;-46
2022/01/21 01:55:52;;;;;;;1.55;0.90;;;;;;;;;;5058713;28;20057;-47
2022/01/21 01:58:18;;;;;;;3.10;1.60;;;;;;;;;;5053342;28;20029;-46
2022/01/21 02:00:44;;;;;;;2.15;0.68;;;;;;;;;;5055238;28;20032;-46
2022/01/21 02:03:12;;;;;;;2.28;0.90;;;;;;;;;;5072873;28;20032;-45
2022/01/21 02:05:38;;;;;;;1.35;0.70;;;;;;;;;;5073101;28;20028;-45
2022/01/21 02:08:04;;;;;;;3.75;0.90;;;;;;;;;;5072022;28;20111;-45
2022/01/21 02:10:30;;;;;;;3.00;1.33;;;;;;;;;;5068360;28;20039;-46
2022/01/21 02:13:03;;;;;;;3.17;0.93;;;;;;;;;;5071676;28;20025;-46
2022/01/21 02:15:30;;;;;;;3.58;1.17;;;;;;;;;;5073183;28;20024;-45
2022/01/21 02:23:28;;;;;;;2.33;1.27;;;;;;;;;;5058154;28;20064;-46
2022/01/21 02:25:54;;;;;;;1.77;0.80;;;;;;;;;;5068186;28;20043;-46
2022/01/21 02:28:20;;;;;;;2.17;0.80;;;;;;;;;;5036207;28;20393;-45
2022/01/21 02:30:56;;;;;;;2.60;1.25;;;;;;;;;;5051797;28;20021;-62
2022/01/21 02:33:23;;;;;;;1.83;0.90;;;;;;;;;;5070736;28;20110;-46
2022/01/21 02:35:49;;;;;;;4.15;1.35;;;;;;;;;;5060769;28;20108;-62
2022/01/21 02:38:16;;;;;;;2.20;1.33;;;;;;;;;;5052075;28;20498;-45
2022/01/21 02:40:43;;;;;;;2.08;0.70;;;;;;;;;;5052668;28;20052;-45
2022/01/21 02:43:09;;;;;;;2.83;0.95;;;;;;;;;;5051459;28;20019;-45
2022/01/21 02:45:37;;;;;;;1.33;0.80;;;;;;;;;;5052723;28;20124;-46
2022/01/21 02:48:04;;;;;;;2.13;0.70;;;;;;;;;;5051586;28;20029;-46
2022/01/21 02:50:31;;;;;;;1.83;1.10;;;;;;;;;;5052329;28;20035;-46
2022/01/21 02:53:13;;;;;;;1.95;0.70;;;;;;;;;;5051095;28;20064;-53
2022/01/21 02:55:40;;;;;;;1.75;0.90;;;;;;;;;;5034721;28;20060;-45
2022/01/21 02:58:06;;;;;;;2.10;0.80;;;;;;;;;;5057497;28;20096;-46
2022/01/21 03:00:32;;;;;;;3.63;1.15;;;;;;;;;;5072116;28;20067;-46
2022/01/21 03:02:58;;;;;;;2.13;0.95;;;;;;;;;;5056743;28;20469;-45
2022/01/21 03:05:24;;;;;;;1.95;1.10;;;;;;;;;;5052618;28;20033;-46
2022/01/21 03:07:50;;;;;;;3.60;1.05;;;;;;;;;;5051241;28;20033;-61
2022/01/21 03:10:16;;;;;;;2.40;1.30;;;;;;;;;;5051979;28;20050;-46
2022/01/21 03:12:42;;;;;;;4.20;1.00;;;;;;;;;;5051897;28;20058;-45
2022/01/21 03:15:09;;;;;;;3.05;0.88;;;;;;;;;;5050989;28;20096;-46
2022/01/21 03:17:35;;;;;;;0.90;0.60;;;;;;;;;;5051778;28;20029;-46
2022/01/21 03:20:01;;;;;;;5.47;0.80;;;;;;;;;;5051141;28;20037;-45
2022/01/21 03:22:27;;;;;;;1.73;0.98;;;;;;;;;;5051351;28;20025;-47
2022/01/21 03:24:53;;;;;;;2.05;0.65;;;;;;;;;;5059051;28;20029;-45
2022/01/21 03:27:19;;;;;;;3.67;1.08;;;;;;;;;;5063425;28;20061;-45
2022/01/21 03:29:46;;;;;;;1.30;0.50;;;;;;;;;;5055881;28;20024;-45
2022/01/21 03:32:12;;;;;;;1.90;0.90;;;;;;;;;;5071005;28;20031;-46
2022/01/21 03:34:38;;;;;;;1.33;0.77;;;;;;;;;;5071789;28;20059;-45
2022/01/21 03:37:04;;;;;;;2.30;0.77;;;;;;;;;;5070426;28;20122;-47
2022/01/21 03:39:30;;;;;;;1.48;0.77;;;;;;;;;;5070413;28;20082;-46
2022/01/21 03:41:56;;;;;;;2.20;0.73;;;;;;;;;;5052602;28;20115;-45
2022/01/21 03:44:22;;;;;;;0.88;0.45;;;;;;;;;;5056256;28;20104;-46
2022/01/21 03:46:48;;;;;;;2.95;0.80;;;;;;;;;;5055598;28;20078;-53
2022/01/21 03:49:15;;;;;;;2.00;1.00;;;;;;;;;;5070747;28;20029;-45
2022/01/21 03:51:41;;;;;;;2.67;0.98;;;;;;;;;;5075881;28;20033;-45
2022/01/21 03:54:07;;;;;;;2.38;0.85;;;;;;;;;;5060108;28;20374;-45
2022/01/21 03:56:35;;;;;;;1.67;0.70;;;;;;;;;;5055570;28;20036;-46
2022/01/21 03:59:01;;;;;;;1.85;0.80;;;;;;;;;;5063841;28;20027;-45
2022/01/21 04:01:28;;;;;;;2.20;0.93;;;;;;;;;;5075421;28;20033;-46
2022/01/21 04:03:54;;;;;;;1.60;0.73;;;;;;;;;;5074642;28;20017;-46
2022/01/21 04:06:20;;;;;;;2.85;1.17;;;;;;;;;;5075225;28;20025;-45
2022/01/21 04:08:46;;;;;;;6.97;2.00;;;;;;;;;;5063103;28;20037;-45
2022/01/21 04:11:12;;;;;;;3.53;0.93;;;;;;;;;;5054552;28;20053;-46
2022/01/21 04:13:38;;;;;;;2.25;0.70;;;;;;;;;;5055264;28;20025;-46
2022/01/21 04:16:05;;;;;;;2.90;0.82;;;;;;;;;;5057253;28;20044;-45
2022/01/21 04:18:32;;;;;;;2.40;0.70;;;;;;;;;;5075269;28;20024;-45
2022/01/21 04:20:58;;;;;;;2.28;0.63;;;;;;;;;;5074751;28;20104;-45
2022/01/21 04:23:25;;;;;;;1.40;0.60;;;;;;;;;;5074844;28;20024;-45
2022/01/21 04:25:51;;;;;;;1.73;0.90;;;;;;;;;;5070534;28;20025;-63
2022/01/21 04:28:18;;;;;;;3.65;1.30;;;;;;;;;;5054486;28;20028;-48
2022/01/21 04:30:44;;;;;;;1.77;0.60;;;;;;;;;;5055000;28;20064;-47
2022/01/21 04:33:10;;;;;;;2.13;0.63;;;;;;;;;;5054915;28;20822;-45
2022/01/21 04:35:36;;;;;;;2.15;0.70;;;;;;;;;;5057054;28;20458;-46
2022/01/21 04:38:06;;;;;;;2.15;0.77;;;;;;;;;;5074517;28;20059;-50
2022/01/21 04:40:37;;;;;;;1.30;0.60;;;;;;;;;;5073666;28;20151;-48
2022/01/21 04:48:33;;;;;;;2.65;0.90;;;;;;;;;;5054883;28;20032;-51
2022/01/21 04:51:13;;;;;;;1.45;0.70;;;;;;;;;;5054821;28;20025;-49
2022/01/21 04:53:39;;;;;;;3.08;0.98;;;;;;;;;;5058269;28;20020;-47
2022/01/21 04:56:05;;;;;;;3.25;1.30;;;;;;;;;;5053684;28;20025;-46
2022/01/21 04:58:32;;;;;;;1.60;0.80;;;;;;;;;;5054881;28;20041;-45
2022/01/21 05:01:02;;;;;;;2.65;0.70;;;;;;;;;;5054330;28;20032;-46
2022/01/21 05:03:28;;;;;;;2.70;1.13;;;;;;;;;;5055245;28;20066;-46
2022/01/21 05:05:55;;;;;;;2.08;1.10;;;;;;;;;;5074090;28;20107;-46
2022/01/21 05:08:29;;;;;;;2.75;0.70;;;;;;;;;;5074675;28;20013;-46
2022/01/21 05:10:55;;;;;;;2.33;0.90;;;;;;;;;;5073700;28;20032;-45
2022/01/21 05:13:25;;;;;;;2.45;0.90;;;;;;;;;;5074641;28;20536;-46
2022/01/21 05:16:07;;;;;;;1.92;0.70;;;;;;;;;;5074359;28;20466;-46
2022/01/21 05:18:33;;;;;;;3.22;0.85;;;;;;;;;;5074616;28;20029;-47
2022/01/21 05:20:59;;;;;;;2.60;1.00;;;;;;;;;;5065684;28;20496;-46
2022/01/21 05:23:26;;;;;;;3.78;1.13;;;;;;;;;;5054431;28;20061;-46
2022/01/21 05:25:53;;;;;;;2.78;1.55;;;;;;;;;;5053905;28;20083;-65
2022/01/21 05:28:19;;;;;;;1.48;0.70;;;;;;;;;;5055502;28;20108;-46
2022/01/21 05:30:45;;;;;;;1.58;0.80;;;;;;;;;;5054346;28;20049;-47
2022/01/21 05:33:11;;;;;;;1.60;0.73;;;;;;;;;;5053852;28;20044;-45
2022/01/21 05:35:37;;;;;;;2.45;1.13;;;;;;;;;;5054248;28;20032;-48
2022/01/21 05:38:03;;;;;;;2.88;0.98;;;;;;;;;;5064864;28;20048;-46
2022/01/21 05:40:29;;;;;;;3.92;1.38;;;;;;;;;;5073923;28;20469;-46
2022/01/21 05:42:55;;;;;;;2.75;0.90;;;;;;;;;;5073498;28;20074;-47
2022/01/21 05:48:06;;;;;;;1.50;0.70;;;;;;;;;;5061136;28;20044;-46
2022/01/21 05:50:32;;;;;;;2.08;0.80;;;;;;;;;;5053480;28;20394;-46
2022/01/21 05:53:01;;;;;;;2.72;1.10;;;;;;;;;;5064074;28;20068;-46
2022/01/21 05:55:28;;;;;;;3.28;0.93;;;;;;;;;;5073497;28;20104;-51
2022/01/21 05:57:53;;;;;;;2.15;0.60;;;;;;;;;;5072347;28;20082;-60
2022/01/21 06:00:19;;;;;;;1.77;0.82;;;;;;;;;;5073490;28;20028;-46
2022/01/21 06:02:45;;;;;;;3.28;1.50;;;;;;;;;;5073590;28;20017;-47
2022/01/21 06:05:13;;;;;;;2.90;0.82;;;;;;;;;;5072163;28;20028;-50
2022/01/21 06:07:40;;;;;;;2.00;0.80;;;;;;;;;;5072896;28;20118;-47
2022/01/21 06:10:07;;;;;;;1.33;0.60;;;;;;;;;;5061203;28;20111;-46
2022/01/21 06:12:33;;;;;;;3.10;0.82;;;;;;;;;;5053611;28;20036;-46
2022/01/21 06:14:59;;;;;;;3.00;0.95;;;;;;;;;;5054829;28;20017;-46
2022/01/21 06:17:25;;;;;;;2.08;0.77;;;;;;;;;;5073163;28;20032;-49
2022/01/21 06:19:51;;;;;;;1.80;0.73;;;;;;;;;;5063463;28;20033;-46
2022/01/21 06:22:17;;;;;;;3.92;0.90;;;;;;;;;;5052430;28;20017;-48
2022/01/21 06:24:43;;;;;;;3.35;1.20;;;;;;;;;;5058145;28;20536;-47
2022/01/21 06:27:10;;;;;;;2.08;0.88;;;;;;;;;;5051903;28;20034;-46
2022/01/21 06:29:35;;;;;;;3.15;1.63;;;;;;;;;;5052594;28;20021;-47
2022/01/21 06:32:02;;;;;;;1.63;0.82;;;;;;;;;;5044584;28;20034;-50
2022/01/21 06:34:27;;;;;;;2.35;1.10;;;;;;;;;;5054305;28;20020;-50
2022/01/21 06:36:53;;;;;;;2.13;0.82;;;;;;;;;;5053176;28;20127;-46
2022/01/21 06:39:20;;;;;;;5.45;0.90;;;;;;;;;;5072031;28;20043;-47
2022/01/21 06:41:47;;;;;;;2.38;0.88;;;;;;;;;;5067318;28;20433;-47
2022/01/21 06:44:13;;;;;;;4.78;0.90;;;;;;;;;;5052148;28;20448;-47
2022/01/21 06:46:39;;;;;;;4.75;1.10;;;;;;;;;;5072118;28;20032;-48
2022/01/21 06:49:05;;;;;;;4.03;1.33;;;;;;;;;;5071515;28;20032;-50
2022/01/21 06:51:31;;;;;;;4.18;0.90;;;;;;;;;;5072312;28;20020;-50
2022/01/21 06:53:57;;;;;;;5.13;1.05;;;;;;;;;;5071420;28;20396;-56
2022/01/21 06:56:23;;;;;;;6.38;1.00;;;;;;;;;;5071613;28;20024;-63
2022/01/21 06:58:49;;;;;;;5.22;1.10;;;;;;;;;;5072315;28;20431;-52
2022/01/21 07:01:15;;;;;;;6.60;1.52;;;;;;;;;;5048063;28;20112;-57
2022/01/21 07:03:41;;;;;;;3.75;1.10;;;;;;;;;;5051541;28;20025;-52
2022/01/21 07:06:07;;;;;;;4.55;1.05;;;;;;;;;;5051078;28;20036;-49
2022/01/21 07:08:34;;;;;;;4.20;1.10;;;;;;;;;;5053408;28;20048;-49
2022/01/21 07:11:00;;;;;;;5.07;1.00;;;;;;;;;;5051432;28;20102;-50
2022/01/21 07:13:26;;;;;;;13.73;1.40;;;;;;;;;;5034179;28;20021;-46
2022/01/21 07:15:52;;;;;;;4.15;1.20;;;;;;;;;;5051795;28;20021;-47
2022/01/21 07:18:18;;;;;;;6.32;1.23;;;;;;;;;;5051076;28;20028;-46
2022/01/21 07:20:44;;;;;;;4.53;1.13;;;;;;;;;;5051823;28;20040;-47
2022/01/21 07:23:10;;;;;;;5.07;1.10;;;;;;;;;;5051350;28;20025;-46
2022/01/21 07:25:37;;;;;;;5.80;1.45;;;;;;;;;;5065302;28;20082;-45
2022/01/21 07:28:04;;;;;;;3.65;1.02;;;;;;;;;;5071249;28;20104;-46
2022/01/21 07:30:31;;;;;;;3.40;0.95;;;;;;;;;;5053183;28;20029;-48
2022/01/21 07:32:57;;;;;;;5.38;1.00;;;;;;;;;;5051495;28;20017;-52
2022/01/21 07:35:22;;;;;;;4.25;1.20;;;;;;;;;;5053434;28;20072;-48
2022/01/21 07:37:49;;;;;;;2.75;1.15;;;;;;;;;;5057675;28;20088;-52
2022/01/21 07:40:16;;;;;;;3.97;1.20;;;;;;;;;;5053965;28;20171;-47
2022/01/21 07:42:42;;;;;;;3.90;1.10;;;;;;;;;;5073199;28;20035;-47
2022/01/21 07:45:09;;;;;;;6.60;1.27;;;;;;;;;;5092494;28;20031;-45
2022/01/21 07:47:35;;;;;;;4.22;1.20;;;;;;;;;;5082530;28;20060;-49
2022/01/21 07:50:01;;;;;;;2.90;1.42;;;;;;;;;;5071098;28;20052;-49
2022/01/21 07:52:27;;;;;;;6.72;1.73;;;;;;;;;;5072280;28;20477;-60
2022/01/21 07:54:53;;;;;;;8.07;1.30;;;;;;;;;;5069161;28;20120;-60
2022/01/21 07:57:19;;;;;;;5.88;1.50;;;;;;;;;;5055703;28;20035;-62
2022/01/21 07:59:45;;;;;;;7.00;1.30;;;;;;;;;;5052373;28;20035;-60
2022/01/21 08:02:11;;;;;;;6.75;1.35;;;;;;;;;;5051147;28;20060;-61
2022/01/21 08:04:37;;;;;;;5.85;1.25;;;;;;;;;;5055234;28;20040;-59
2022/01/21 08:07:04;;;;;;;4.90;1.60;;;;;;;;;;5070489;28;20385;-60
2022/01/21 08:09:30;;;;;;;5.53;1.52;;;;;;;;;;5057789;28;20428;-59
2022/01/21 08:11:56;;;;;;;2.70;1.17;;;;;;;;;;5051378;28;20025;-54
2022/01/21 08:14:23;;;;;;;4.28;1.15;;;;;;;;;;5050872;28;20025;-60
2022/01/21 08:16:50;;;;;;;8.07;2.08;;;;;;;;;;5051360;28;20497;-61
2022/01/21 08:19:16;;;;;;;8.55;1.40;;;;;;;;;;5067160;28;20025;-61
2022/01/21 08:21:42;;;;;;;8.43;1.92;;;;;;;;;;5071534;28;20036;-56
2022/01/21 08:24:09;;;;;;;4.82;1.27;;;;;;;;;;5069037;28;20100;-63
2022/01/21 08:26:35;;;;;;;8.32;1.63;;;;;;;;;;5051161;28;20462;-60
2022/01/21 08:29:02;;;;;;;7.13;1.83;;;;;;;;;;5064236;28;20028;-60
2022/01/21 08:31:28;;;;;;;4.85;1.80;;;;;;;;;;5067908;28;20020;-61
2022/01/21 08:33:54;;;;;;;6.65;1.67;;;;;;;;;;5061979;28;20104;-58
2022/01/21 08:36:21;;;;;;;8.95;1.58;;;;;;;;;;5054169;28;20111;-55
2022/01/21 08:38:47;;;;;;;7.28;1.40;;;;;;;;;;5056219;28;20045;-51
2022/01/21 08:41:13;;;;;;;8.10;1.23;;;;;;;;;;5055191;28;20036;-53
2022/01/21 08:43:40;;;;;;;8.45;1.27;;;;;;;;;;5055636;28;20021;-51
2022/01/21 08:46:07;;;;;;;4.50;1.33;;;;;;;;;;5058211;28;20025;-55
2022/01/21 08:48:33;;;;;;;7.15;2.05;;;;;;;;;;5074466;28;20034;-53
2022/01/21 08:51:01;;;;;;;12.20;2.35;;;;;;;;;;5074943;28;20071;-49
2022/01/21 08:53:36;;;;;;;5.45;1.35;;;;;;;;;;5065782;28;20112;-51
2022/01/21 08:56:04;;;;;;;3.40;1.33;;;;;;;;;;5054102;28;20580;-51
2022/01/21 08:58:30;;;;;;;3.50;1.63;;;;;;;;;;5054707;28;20040;-50
2022/01/21 09:00:56;;;;;;;2.92;0.82;;;;;;;;;;5054727;28;20029;-48
2022/01/21 09:03:22;;;;;;;5.72;2.70;;;;;;;;;;5054337;28;20036;-51
2022/01/21 09:05:49;;;;;;;7.43;3.03;;;;;;;;;;5054573;28;20046;-52
2022/01/21 09:08:28;;;;;;;4.68;2.28;;;;;;;;;;5053649;28;20021;-44
2022/01/21 09:10:54;;;;;;;7.28;2.63;;;;;;;;;;5037035;28;20025;-50
2022/01/21 09:13:22;;;;;;;8.05;2.47;;;;;;;;;;5053888;28;20214;-48
2022/01/21 09:15:48;;;;;;;7.78;2.53;;;;;;;;;;5057277;28;20087;-45
2022/01/21 09:18:18;;;;;;;8.50;2.20;;;;;;;;;;5053526;28;20025;-47
2022/01/21 09:20:45;;;;;;;6.13;1.60;;;;;;;;;;5054614;28;20055;-51
2022/01/21 09:23:11;;;;;;;9.20;2.00;;;;;;;;;;5053632;28;20049;-49
2022/01/21 09:25:37;;;;;;;7.90;2.30;;;;;;;;;;5056741;28;20033;-47
2022/01/21 09:28:04;;;;;;;6.05;1.60;;;;;;;;;;5053251;28;20061;-48
2022/01/21 09:30:30;;;;;;;6.65;2.65;;;;;;;;;;5055058;28;20127;-46
2022/01/21 09:32:56;;;;;;;5.90;2.08;;;;;;;;;;5054076;28;20025;-50
2022/01/21 09:35:22;;;;;;;6.07;1.70;;;;;;;;;;5053477;28;20025;-51
2022/01/21 09:37:48;;;;;;;6.38;1.90;;;;;;;;;;5053550;28;20129;-51
2022/01/21 09:40:14;;;;;;;6.55;1.58;;;;;;;;;;5053138;28;20478;-48
2022/01/21 09:42:40;;;;;;;7.70;1.33;;;;;;;;;;5054435;28;20341;-48
2022/01/21 09:45:09;;;;;;;5.30;1.92;;;;;;;;;;5062172;28;20355;-48
2022/01/21 09:47:45;;;;;;;5.80;1.73;;;;;;;;;;5067260;28;20017;-49
2022/01/21 09:50:14;;;;;;;5.10;1.67;;;;;;;;;;5049187;28;20021;-48
2022/01/21 09:52:43;;;;;;;3.88;1.67;;;;;;;;;;5057029;28;20024;-52
2022/01/21 09:55:09;;;;;;;10.02;2.70;;;;;;;;;;5059897;28;20044;-52
2022/01/21 09:57:36;;;;;;;3.95;1.40;;;;;;;;;;5058146;28;20044;-51
2022/01/21 10:00:03;;;;;;;7.28;2.10;;;;;;;;;;5062418;28;20048;-59
2022/01/21 10:02:29;;;;;;;4.85;1.17;;;;;;;;;;5065833;28;20029;-52
2022/01/21 10:04:57;;;;;;;4.38;1.60;;;;;;;;;;5059134;28;20477;-50
2022/01/21 10:07:23;;;;;;;3.40;1.17;;;;;;;;;;5058794;28;20060;-52
2022/01/21 10:09:50;;;;;;;6.65;2.05;;;;;;;;;;5050629;28;20360;-50
2022/01/21 10:12:17;;;;;;;2.67;1.10;;;;;;;;;;5067887;28;20036;-52
2022/01/21 10:14:43;;;;;;;4.53;1.42;;;;;;;;;;5058594;28;20029;-48
2022/01/21 10:17:10;;;;;;;4.25;1.48;;;;;;;;;;5062184;28;20082;-49
2022/01/21 10:19:37;;;;;;;5.43;1.60;;;;;;;;;;5056644;28;20025;-52
2022/01/21 10:22:04;;;;;;;5.25;1.58;;;;;;;;;;5051294;28;20470;-60
2022/01/21 10:24:31;;;;;;;3.55;1.15;;;;;;;;;;5061672;28;20116;-51
2022/01/21 10:26:58;;;;;;;5.15;1.38;;;;;;;;;;5064608;28;20029;-58
2022/01/21 10:29:25;;;;;;;5.07;1.10;;;;;;;;;;5052959;28;20386;-52
2022/01/21 10:31:53;;;;;;;5.88;1.70;;;;;;;;;;5066511;28;20056;-52
2022/01/21 10:34:27;;;;;;;3.58;1.30;;;;;;;;;;5055277;28;20108;-51
2022/01/21 10:36:57;;;;;;;2.67;1.30;;;;;;;;;;5072594;28;20550;-50
2022/01/21 10:39:31;;;;;;;3.40;1.30;;;;;;;;;;5068949;28;20416;-51
2022/01/21 10:41:58;;;;;;;2.13;0.93;;;;;;;;;;5056224;28;20029;-50
2022/01/21 10:44:27;;;;;;;3.40;1.05;;;;;;;;;;5049925;28;20429;-49
2022/01/21 10:47:03;;;;;;;3.90;1.10;;;;;;;;;;5058933;28;20025;-50
2022/01/21 10:49:29;;;;;;;3.92;1.50;;;;;;;;;;5049012;28;20597;-49
2022/01/21 10:51:55;;;;;;;2.92;1.05;;;;;;;;;;5055681;28;20100;-50
2022/01/21 10:54:22;;;;;;;2.75;1.30;;;;;;;;;;5067691;28;20074;-51
2022/01/21 10:57:07;;;;;;;2.60;1.35;;;;;;;;;;5058038;28;20044;-52
2022/01/21 10:59:46;;;;;;;2.65;1.00;;;;;;;;;;5059416;28;20029;-48
2022/01/21 11:02:13;;;;;;;2.03;1.20;;;;;;;;;;5067397;28;20032;-46
2022/01/21 11:04:42;;;;;;;1.75;0.93;;;;;;;;;;5056603;28;20143;-49
2022/01/21 11:07:11;;;;;;;3.00;1.10;;;;;;;;;;5061998;28;20016;-47
2022/01/21 11:09:40;;;;;;;4.53;1.40;;;;;;;;;;5051304;28;20052;-50
2022/01/21 11:12:07;;;;;;;2.80;1.00;;;;;;;;;;5054310;28;20108;-46
2022/01/21 11:14:36;;;;;;;4.18;1.30;;;;;;;;;;5062341;28;20025;-47
2022/01/21 11:17:06;;;;;;;1.30;1.10;;;;;;;;;;5053486;28;20029;-51
2022/01/21 11:19:35;;;;;;;3.15;1.20;;;;;;;;;;5067465;28;20132;-50
2022/01/21 11:22:04;;;;;;;4.13;1.73;;;;;;;;;;5055277;28;20029;-53
2022/01/21 11:24:30;;;;;;;3.63;1.30;;;;;;;;;;5064158;28;20111;-50
2022/01/21 11:27:05;;;;;;;3.28;0.95;;;;;;;;;;5064281;28;20035;-53
2022/01/21 11:29:32;;;;;;;1.95;1.13;;;;;;;;;;5063611;28;20024;-53
2022/01/21 11:31:58;;;;;;;5.70;1.92;;;;;;;;;;5059344;28;20037;-48
2022/01/21 11:34:24;;;;;;;2.22;1.20;;;;;;;;;;5065020;28;20919;-50
2022/01/21 11:36:51;;;;;;;4.45;0.90;;;;;;;;;;5069272;28;20039;-48
2022/01/21 11:39:21;;;;;;;2.85;1.23;;;;;;;;;;5069257;28;20417;-50
2022/01/21 11:41:51;;;;;;;4.75;1.10;;;;;;;;;;5063412;28;20124;-61
2022/01/21 11:44:21;;;;;;;4.32;1.45;;;;;;;;;;5053312;28;20122;-58
2022/01/21 11:49:55;;;;;;;6.35;2.10;;;;;;;;;;5048285;28;20029;-58
2022/01/21 11:52:21;;;;;;;7.30;2.38;;;;;;;;;;5059443;28;20029;-57
2022/01/21 11:54:48;;;;;;;7.97;3.03;;;;;;;;;;5065525;28;20021;-56
2022/01/21 11:57:15;;;;;;;4.70;1.80;;;;;;;;;;5060096;28;20028;-57
2022/01/21 11:59:51;;;;;;;6.15;1.95;;;;;;;;;;5069264;28;20036;-61
2022/01/21 12:02:22;;;;;;;4.65;2.00;;;;;;;;;;5049830;28;20051;-59
2022/01/21 12:04:50;;;;;;;4.10;1.80;;;;;;;;;;5063977;28;20025;-62
2022/01/21 12:07:36;;;;;;;4.97;2.38;;;;;;;;;;5054216;28;20417;-61
2022/01/21 12:10:07;;;;;;;4.80;1.63;;;;;;;;;;5055942;28;20079;-59
2022/01/21 12:12:50;;;;;;;4.45;1.30;;;;;;;;;;5056810;28;20024;-63
2022/01/21 12:20:47;;;;;;;4.00;1.50;;;;;;;;;;5061617;28;20055;-62
2022/01/21 12:23:15;;;;;;;5.82;1.50;;;;;;;;;;5065253;28;20023;-61
2022/01/21 12:26:00;;;;;;;3.58;1.50;;;;;;;;;;5068605;28;20032;-63
2022/01/21 12:28:26;;;;;;;4.15;1.27;;;;;;;;;;5058319;28;20028;-62
2022/01/21 12:30:53;;;;;;;4.05;2.08;;;;;;;;;;5068244;28;20017;-61
2022/01/21 12:33:19;;;;;;;2.33;1.58;;;;;;;;;;5065177;28;20103;-60
2022/01/21 12:35:46;;;;;;;2.63;1.58;;;;;;;;;;5061666;28;20029;-60
2022/01/21 12:39:14;;;;;;;4.10;1.15;;;;;;;;;;5069512;28;20059;-59
2022/01/21 12:41:17;;;;;;;2.67;1.40;;;;;;;;;;5055501;28;20025;-57
2022/01/21 12:43:44;;;;;;;3.35;1.30;;;;;;;;;;5068616;28;20554;-60
2022/01/21 12:46:14;;;;;;;2.58;1.05;;;;;;;;;;5057530;28;20021;-65
2022/01/21 12:48:40;;;;;;;2.42;1.38;;;;;;;;;;5069921;28;20082;-65
2022/01/21 12:56:53;;;;;;;1.30;1.00;;;;;;;;;;5061311;28;20094;-60
2022/01/21 12:59:24;;;;;;;2.45;1.10;;;;;;;;;;5071105;28;20112;-64
2022/01/21 13:01:50;;;;;;;2.67;1.42;;;;;;;;;;5069444;28;20056;-60
2022/01/21 13:04:16;;;;;;;4.25;1.15;;;;;;;;;;5070441;28;20363;-59
2022/01/21 13:06:58;;;;;;;3.58;1.10;;;;;;;;;;5058553;28;20029;-59
2022/01/21 13:09:40;;;;;;;3.50;1.30;;;;;;;;;;5053523;28;20068;-58
2022/01/21 13:12:11;;;;;;;3.53;0.98;;;;;;;;;;5055007;28;20083;-59
2022/01/21 13:14:43;;;;;;;3.92;1.50;;;;;;;;;;5069258;28;20013;-61
2022/01/21 13:17:09;;;;;;;;;;;;;;;;;;5062729;28;20501;-62
2022/01/21 13:19:54;;;;;;;2.05;0.80;;;;;;;;;;5061450;28;19922;-65
2022/01/21 13:22:26;;;;;;;1.77;0.85;;;;;;;;;;5053211;28;20029;-59
2022/01/21 13:25:06;;;;;;;2.70;1.00;;;;;;;;;;5054930;28;20540;-59
2022/01/21 13:27:33;;;;;;;3.28;0.77;;;;;;;;;;5065934;28;20430;-60
2022/01/21 13:30:01;;;;;;;4.57;1.17;;;;;;;;;;5057805;28;20025;-60
2022/01/21 13:32:27;;;;;;;4.43;1.25;;;;;;;;;;5058450;28;20653;-59
2022/01/21 13:35:05;;;;;;;1.83;1.20;;;;;;;;;;5067022;28;20021;-60
2022/01/21 13:37:32;;;;;;;2.97;0.88;;;;;;;;;;5065213;28;20052;-59
2022/01/21 13:39:58;;;;;;;1.92;1.10;;;;;;;;;;5072569;28;20374;-61
2022/01/21 13:42:26;;;;;;;4.38;0.80;;;;;;;;;;5047925;28;20024;-62
2022/01/21 13:44:53;;;;;;;2.47;0.98;;;;;;;;;;5072554;28;20059;-59
2022/01/21 13:47:24;;;;;;;2.58;0.90;;;;;;;;;;5065011;28;20481;-54
2022/01/21 13:49:51;;;;;;;3.92;0.93;;;;;;;;;;5068408;28;20017;-56
2022/01/21 13:52:17;;;;;;;6.00;1.20;;;;;;;;;;5069515;28;20411;-55
2022/01/21 13:54:45;;;;;;;6.20;1.02;;;;;;;;;;5055266;28;20029;-55
2022/01/21 13:57:11;;;;;;;3.38;0.90;;;;;;;;;;5064313;28;20033;-60
2022/01/21 13:59:45;;;;;;;4.18;1.23;;;;;;;;;;5059992;28;20028;-58
2022/01/21 14:02:16;;;;;;;8.13;1.48;;;;;;;;;;5068843;28;20077;-58
2022/01/21 14:04:53;;;;;;;4.00;1.27;;;;;;;;;;5058757;28;20102;-58
2022/01/21 14:07:29;;;;;;;6.80;1.52;;;;;;;;;;5065845;28;20388;-58
2022/01/21 14:09:56;;;;;;;3.90;1.08;;;;;;;;;;5071399;28;20500;-58
2022/01/21 14:12:22;;;;;;;3.72;1.48;;;;;;;;;;5069414;28;20025;-58
2022/01/21 14:14:49;;;;;;;3.63;0.65;;;;;;;;;;5059501;28;20025;-58
2022/01/21 14:17:16;;;;;;;6.32;1.33;;;;;;;;;;5062100;28;20165;-59
2022/01/21 14:19:43;;;;;;;3.80;1.48;;;;;;;;;;5059524;28;20108;-59
2022/01/21 14:22:09;;;;;;;2.63;1.08;;;;;;;;;;5068792;28;20450;-59
2022/01/21 14:24:45;;;;;;;5.30;1.42;;;;;;;;;;5057458;28;20016;-58
2022/01/21 14:27:25;;;;;;;3.83;0.73;;;;;;;;;;5063161;28;20036;-61
2022/01/21 14:29:54;;;;;;;2.47;0.80;;;;;;;;;;5063164;28;20539;-58
2022/01/21 14:32:32;;;;;;;2.80;1.25;;;;;;;;;;5055616;28;20021;-59
2022/01/21 14:35:11;;;;;;;4.68;0.70;;;;;;;;;;5065078;28;20383;-59
2022/01/21 14:37:41;;;;;;;3.25;1.02;;;;;;;;;;5065381;28;20057;-59
2022/01/21 14:40:08;;;;;;;2.38;0.82;;;;;;;;;;5070188;28;20032;-65
2022/01/21 14:42:34;;;;;;;2.58;0.95;;;;;;;;;;5056778;28;20027;-60
2022/01/21 14:45:01;;;;;;;2.90;0.98;;;;;;;;;;5064956;28;20033;-60
2022/01/21 14:47:31;;;;;;;2.83;1.33;;;;;;;;;;5055428;28;20037;-60
2022/01/21 14:50:14;;;;;;;3.88;0.90;;;;;;;;;;5058723;28;20044;-59
2022/01/21 14:52:46;;;;;;;2.55;0.93;;;;;;;;;;5057522;28;20039;-59
2022/01/21 14:55:19;;;;;;;1.95;0.70;;;;;;;;;;5062209;28;20032;-60
2022/01/21 14:57:46;;;;;;;3.67;1.40;;;;;;;;;;5066298;28;20033;-59
2022/01/21 15:00:12;;;;;;;3.15;1.40;;;;;;;;;;5054937;28;20033;-59
2022/01/21 15:02:39;;;;;;;2.75;0.70;;;;;;;;;;5067528;28;20025;-61
2022/01/21 15:05:11;;;;;;;1.65;0.63;;;;;;;;;;5054848;28;20171;-59
2022/01/21 15:07:37;;;;;;;;;;;;;;;;;;5056277;28;20036;-59
2022/01/21 15:10:16;;;;;;;2.28;0.77;;;;;;;;;;5051947;28;19999;-61
2022/01/21 15:15:27;;;;;;;3.53;0.93;;;;;;;;;;5062305;28;20448;-59
2022/01/21 15:17:54;;;;;;;3.67;0.88;;;;;;;;;;5055934;28;20025;-59
2022/01/21 15:20:24;;;;;;;3.55;1.17;;;;;;;;;;5066591;28;20032;-59
2022/01/21 15:22:50;;;;;;;2.70;1.40;;;;;;;;;;5056647;28;20462;-69
2022/01/21 15:25:16;;;;;;;4.13;1.27;;;;;;;;;;5050936;28;20489;-62
2022/01/21 15:27:42;;;;;;;3.17;1.05;;;;;;;;;;5065058;28;20051;-63
2022/01/21 15:30:09;;;;;;;3.20;0.85;;;;;;;;;;5061210;28;20028;-62
2022/01/21 15:32:36;;;;;;;3.70;0.90;;;;;;;;;;5057564;28;20029;-63
2022/01/21 15:35:03;;;;;;;1.58;0.90;;;;;;;;;;5059410;28;20029;-59
2022/01/21 15:37:29;;;;;;;4.32;0.90;;;;;;;;;;5057789;28;20057;-60
2022/01/21 15:39:55;;;;;;;2.20;0.88;;;;;;;;;;5060981;28;20021;-60
2022/01/21 15:42:21;;;;;;;4.30;0.90;;;;;;;;;;5060492;28;20044;-57
2022/01/21 15:44:47;;;;;;;3.58;1.08;;;;;;;;;;5037898;28;20025;-63
2022/01/21 15:47:13;;;;;;;5.05;1.05;;;;;;;;;;5059682;28;20025;-63
2022/01/21 15:49:40;;;;;;;3.75;1.38;;;;;;;;;;5058287;28;20071;-55
2022/01/21 15:52:09;;;;;;;4.20;1.30;;;;;;;;;;5068265;28;20032;-59